Bowen, Queensland

9:20 PM EST on August 27, 2014 (GMT +1000)
Whitsunday | Change Station
CLOSE
Current Station
Airport
Location: Proserpine,
Elevation: 66 ft
Nearby Weather Stations

Elev 66 ft 20.49 °S, 148.55 °E | Updated 20 minutes ago

Clear
Clear
54 °F
Feels Like 54 °F
N
4
Wind Variable Wind from West

Today
High -- | Low -- °F
--% Chance of Precip.
Yesterday
High -- | Low -- °F
Precip. -- in
6:20 AM 5:57 PM
Waxing Crescent, 3% visible
Pressure 30.04 in
Visibility 6.2 miles
Clouds
Dew Point 48 °F
Humidity 82%
Rainfall 0.00 in
Snow Depth Not available.
UV Not available.
Pollen Not available.
Air Quality Not available.
Flu Activity Not available.
METAR YBPN 271100Z AUTO 28003KT 9999 // NCD 12/09 Q1017

More Conditions Fewer Conditions

Pressure 30.04 in
Visibility 6.2 miles
Clouds
Dew Point 48 °F
Humidity 82%
Rainfall 0.00 in
Snow Depth Not available.
UV Not available.
Pollen Not available.
Air Quality Not available.
Flu Activity Not available.
METAR YBPN 271100Z AUTO 28003KT 9999 // NCD 12/09 Q1017

More Conditions Fewer Conditions

10-Day Weather Forecast

Almanac

Astronomy

Aug. 27, 2014 Rise Set
Actual Time 6:20 AM EST 5:57 PM EST
Civil Twilight 5:58 AM EST 6:19 PM EST
Nautical Twilight 5:32 AM EST 6:45 PM EST
Astronomical Twilight 5:06 AM EST 7:11 PM EST
Moon 7:00 AM EST 7:17 PM EST
Length of Visible Light 12h 21m
Length of Day
11h 37m
Tomorrow will be 1m 2s longer.
Waxing Crescent, 3% of the Moon is Illuminated
Today
Waxing Crescent
Sep 2
First Quarter
Sep 8
Full
Sep 15
Last Quarter
Sep 24
New

Yesterday's Extremes

Country Highs Country Lows

Community

WunderPhotos

Upload Photos

1,747,667 photos uploaded!

Nearby

Snow Depth

Not available.

Earthquake Activity

City Distance Mag. Time & Date
No recent earthquake activity has been reported nearby.
Minimum magnitude displayed is 2.5.

Coastal Water Temperatures

Place Temperature
No Stations Reporting

Nearby Weather Stations